Kissho — JD3124 — position and weather

sailwx.info

Track history (hours):
 
Tides and Currents Weather Stations Pressure Air Temp Water Temp Dewpoint Dewpoint Depression Visibility Wind Speed Wind Dir Waves Ship Positions

Kissho

Last reported at 2016-May-01 13:12 UTC. Time now 2016-May-01 17:26 UTC.
Position N 35°15' E 140°30'.

Length 30 m.

Type: Tug. MMSI: 431002115.

Date/timePositionNaut miles runAvg speedWind from/ knotsBaromVisibWave heightAir tempDewpointWater temp
2016-May-01 13:12N 35°15' E 140°30'  
2016-Apr-26 06:22N 35°17' E 139°45'6 6.4
2016-Apr-26 05:23N 35°23' E 139°42'5 6.4
2016-Apr-26 04:33N 35°28' E 139°42'2 1.6
2016-Apr-26 03:34N 35°29' E 139°43'6 5.5
2016-Apr-26 02:34N 35°31' E 139°49'7 6.6
2016-Apr-26 01:34N 35°37' E 139°48'0 0.0
2016-Apr-26 00:26N 35°37' E 139°48'0 0.0
2016-Apr-25 23:32N 35°37' E 139°48'0 0.0
2016-Apr-25 22:32N 35°37' E 139°48'0 0.0
2016-Apr-25 21:32N 35°37' E 139°48'0 0.0
2016-Apr-25 20:23N 35°37' E 139°48'0 0.0
2016-Apr-25 19:32N 35°37' E 139°48'0 0.0
2016-Apr-25 18:32N 35°37' E 139°48'0 0.0
2016-Apr-25 17:29N 35°37' E 139°48'0 0.0
2016-Apr-25 16:32N 35°37' E 139°48'0 0.0
2016-Apr-25 15:20N 35°37' E 139°48'0 0.0
2016-Apr-25 14:32N 35°37' E 139°48'0 0.0
2016-Apr-25 13:32N 35°37' E 139°48'0 0.0
2016-Apr-25 12:32N 35°37' E 139°48'0 0.0
2016-Apr-25 11:23N 35°37' E 139°48'0 0.0
2016-Apr-25 10:32N 35°37' E 139°48'0 0.0
2016-Apr-25 09:29N 35°37' E 139°48'2 2.2
2016-Apr-25 08:33N 35°36' E 139°50'6 6.0
2016-Apr-25 07:33N 35°31' E 139°46'1 0.5
2016-Apr-25 06:31N 35°31' E 139°45'0 0.0
2016-Apr-25 05:31N 35°31' E 139°45'0 0.0
2016-Apr-25 04:28N 35°31' E 139°45'0 0.0
2016-Apr-25 03:31N 35°31' E 139°45'0 0.0
2016-Apr-25 02:31N 35°31' E 139°45'0 0.0
2016-Apr-25 01:31N 35°31' E 139°45'0 0.0
2016-Apr-25 00:33N 35°31' E 139°45'1 1.2
2016-Apr-24 23:33N 35°30' E 139°45'3 3.1
2016-Apr-24 22:33N 35°30' E 139°49'5 4.8
2016-Apr-24 21:33N 35°35' E 139°51'3 3.2
2016-Apr-24 20:29N 35°37' E 139°48'0 0.0
2016-Apr-24 19:32N 35°37' E 139°48'0 0.0
2016-Apr-24 18:23N 35°37' E 139°48'0 0.0
2016-Apr-24 17:29N 35°37' E 139°48'0 0.0
2016-Apr-24 16:32N 35°37' E 139°48'0 0.0
2016-Apr-24 15:29N 35°37' E 139°48'0 0.0
2016-Apr-24 14:32N 35°37' E 139°48'0 0.0
2016-Apr-24 13:32N 35°37' E 139°48'0 0.0
2016-Apr-24 12:32N 35°37' E 139°48'0 0.0
2016-Apr-24 11:32N 35°37' E 139°48'0 0.0
2016-Apr-24 10:29N 35°37' E 139°48'0 0.0
2016-Apr-24 09:32N 35°37' E 139°48'0 0.0
2016-Apr-24 08:32N 35°37' E 139°48'0 0.0
2016-Apr-24 07:32N 35°37' E 139°48'4 4.5
2016-Apr-24 06:33N 35°34' E 139°52'5 4.6
2016-Apr-24 05:33N 35°30' E 139°49'7 7.2
2016-Apr-24 04:31N 35°23' E 139°46'7 6.8
2016-Apr-24 03:33N 35°16' E 139°46'10 6.5
2016-Apr-24 02:03N 35°07' E 139°46'19 3.9
2016-Apr-23 21:06N 34°57' E 140°06'5 6.8
2016-Apr-23 20:23N 35°00' E 140°11'22 5.5
2016-Apr-23 16:27N 35°15' E 140°30'  
Track history (hours):
 
Tides and Currents Weather Stations Pressure Air Temp Water Temp Dewpoint Dewpoint Depression Visibility Wind Speed Wind Dir Waves Ship Positions

Kissho

Last reported at 2016-May-01 13:12 UTC. Time now 2016-May-01 17:26 UTC.
Position N 35°15' E 140°30'.

Length 30 m.

Type: Tug. MMSI: 431002115.

Date/timePositionNaut miles runAvg speedWind from/ knotsBaromVisibWave heightAir tempDewpointWater temp
2016-May-01 13:12N 35°15' E 140°30'  
2016-Apr-26 06:22N 35°17' E 139°45'6 6.4
2016-Apr-26 05:23N 35°23' E 139°42'5 6.4
2016-Apr-26 04:33N 35°28' E 139°42'2 1.6
2016-Apr-26 03:34N 35°29' E 139°43'6 5.5
2016-Apr-26 02:34N 35°31' E 139°49'7 6.6
2016-Apr-26 01:34N 35°37' E 139°48'0 0.0
2016-Apr-26 00:26N 35°37' E 139°48'0 0.0
2016-Apr-25 23:32N 35°37' E 139°48'0 0.0
2016-Apr-25 22:32N 35°37' E 139°48'0 0.0
2016-Apr-25 21:32N 35°37' E 139°48'0 0.0
2016-Apr-25 20:23N 35°37' E 139°48'0 0.0
2016-Apr-25 19:32N 35°37' E 139°48'0 0.0
2016-Apr-25 18:32N 35°37' E 139°48'0 0.0
2016-Apr-25 17:29N 35°37' E 139°48'0 0.0
2016-Apr-25 16:32N 35°37' E 139°48'0 0.0
2016-Apr-25 15:20N 35°37' E 139°48'0 0.0
2016-Apr-25 14:32N 35°37' E 139°48'0 0.0
2016-Apr-25 13:32N 35°37' E 139°48'0 0.0
2016-Apr-25 12:32N 35°37' E 139°48'0 0.0
2016-Apr-25 11:23N 35°37' E 139°48'0 0.0
2016-Apr-25 10:32N 35°37' E 139°48'0 0.0
2016-Apr-25 09:29N 35°37' E 139°48'2 2.2
2016-Apr-25 08:33N 35°36' E 139°50'6 6.0
2016-Apr-25 07:33N 35°31' E 139°46'1 0.5
2016-Apr-25 06:31N 35°31' E 139°45'0 0.0
2016-Apr-25 05:31N 35°31' E 139°45'0 0.0
2016-Apr-25 04:28N 35°31' E 139°45'0 0.0
2016-Apr-25 03:31N 35°31' E 139°45'0 0.0
2016-Apr-25 02:31N 35°31' E 139°45'0 0.0
2016-Apr-25 01:31N 35°31' E 139°45'0 0.0
2016-Apr-25 00:33N 35°31' E 139°45'1 1.2
2016-Apr-24 23:33N 35°30' E 139°45'3 3.1
2016-Apr-24 22:33N 35°30' E 139°49'5 4.8
2016-Apr-24 21:33N 35°35' E 139°51'3 3.2
2016-Apr-24 20:29N 35°37' E 139°48'0 0.0
2016-Apr-24 19:32N 35°37' E 139°48'0 0.0
2016-Apr-24 18:23N 35°37' E 139°48'0 0.0
2016-Apr-24 17:29N 35°37' E 139°48'0 0.0
2016-Apr-24 16:32N 35°37' E 139°48'0 0.0
2016-Apr-24 15:29N 35°37' E 139°48'0 0.0
2016-Apr-24 14:32N 35°37' E 139°48'0 0.0
2016-Apr-24 13:32N 35°37' E 139°48'0 0.0
2016-Apr-24 12:32N 35°37' E 139°48'0 0.0
2016-Apr-24 11:32N 35°37' E 139°48'0 0.0
2016-Apr-24 10:29N 35°37' E 139°48'0 0.0
2016-Apr-24 09:32N 35°37' E 139°48'0 0.0
2016-Apr-24 08:32N 35°37' E 139°48'0 0.0
2016-Apr-24 07:32N 35°37' E 139°48'4 4.5
2016-Apr-24 06:33N 35°34' E 139°52'5 4.6
2016-Apr-24 05:33N 35°30' E 139°49'7 7.2
2016-Apr-24 04:31N 35°23' E 139°46'7 6.8
2016-Apr-24 03:33N 35°16' E 139°46'10 6.5
2016-Apr-24 02:03N 35°07' E 139°46'19 3.9
2016-Apr-23 21:06N 34°57' E 140°06'5 6.8
2016-Apr-23 20:23N 35°00' E 140°11'22 5.5
2016-Apr-23 16:27N 35°15' E 140°30'  

Dump ship's entire track history